Time;durP1;ratioP1;P1;durP2;ratioP2;P2;SDS_P1;SDS_P2;PMS_P1;PMS_P2;Temp;Humidity;BMP_temperature;BMP_pressure;BME280_temperature;BME280_humidity;BME280_pressure;Samples;Min_cycle;Max_cycle;Signal;HPM_P1;HPM_P2
2024/02/14 00:01:20;;;;;;;13.38;9.95;;;21.00;46.10;;;;;;10363921;28;20442;-58
2024/02/14 00:06:25;;;;;;;13.15;10.23;;;20.90;46.40;;;;;;10360101;28;20042;-60
2024/02/14 00:11:28;;;;;;;13.32;10.27;;;20.80;46.50;;;;;;10357962;28;20575;-58
2024/02/14 00:16:30;;;;;;;13.07;9.75;;;20.80;46.40;;;;;;10353757;28;20530;-59
2024/02/14 00:21:33;;;;;;;13.60;9.95;;;20.70;46.40;;;;;;10351341;28;20049;-57
2024/02/14 00:26:37;;;;;;;14.27;9.82;;;20.60;46.80;;;;;;10357829;28;20057;-60
2024/02/14 00:31:39;;;;;;;13.15;9.57;;;20.60;46.80;;;;;;10358166;28;20291;-58
2024/02/14 00:36:40;;;;;;;12.63;9.80;;;20.60;46.80;;;;;;10358893;28;20077;-60
2024/02/14 00:41:43;;;;;;;11.68;8.57;;;20.50;46.70;;;;;;10362436;28;20057;-60
2024/02/14 00:46:45;;;;;;;12.45;8.85;;;20.50;46.80;;;;;;10358961;28;20046;-58
2024/02/14 00:51:49;;;;;;;11.38;8.35;;;20.40;46.90;;;;;;10358226;28;20129;-59
2024/02/14 00:56:52;;;;;;;12.07;8.40;;;20.30;47.10;;;;;;10352893;28;20054;-59
2024/02/14 01:01:54;;;;;;;12.55;8.65;;;20.30;46.90;;;;;;10354992;28;20073;-58
2024/02/14 01:06:55;;;;;;;10.55;8.25;;;20.20;47.00;;;;;;10353394;28;20077;-59
2024/02/14 01:12:00;;;;;;;10.95;8.32;;;20.10;47.30;;;;;;10359946;28;20050;-60
2024/02/14 01:17:01;;;;;;;10.35;8.18;;;20.10;47.30;;;;;;10358119;28;20412;-58
2024/02/14 01:22:03;;;;;;;12.32;8.68;;;20.00;47.20;;;;;;10353078;28;20149;-58
2024/02/14 01:27:08;;;;;;;11.48;8.02;;;20.10;47.30;;;;;;10350914;28;20058;-58
2024/02/14 01:32:10;;;;;;;11.25;8.30;;;20.00;47.40;;;;;;10349073;28;20049;-60
2024/02/14 01:37:11;;;;;;;11.18;7.68;;;20.00;47.30;;;;;;10360981;28;20128;-58
2024/02/14 01:42:14;;;;;;;11.05;8.20;;;20.00;47.40;;;;;;10365272;28;20046;-59
2024/02/14 01:47:16;;;;;;;10.00;7.45;;;19.80;47.50;;;;;;10364441;28;20500;-60
2024/02/14 01:52:17;;;;;;;10.90;8.10;;;19.80;47.60;;;;;;10369027;28;20073;-58
2024/02/14 01:57:20;;;;;;;9.20;6.93;;;19.70;47.50;;;;;;10363556;28;20056;-60
2024/02/14 02:02:22;;;;;;;10.13;7.20;;;19.70;47.50;;;;;;10363207;28;20138;-60
2024/02/14 02:07:25;;;;;;;9.13;6.85;;;19.70;47.60;;;;;;10364556;28;20054;-60
2024/02/14 02:12:28;;;;;;;9.57;6.80;;;19.60;47.60;;;;;;10358684;28;20046;-58
2024/02/14 02:17:30;;;;;;;8.75;7.18;;;19.70;47.60;;;;;;10357729;28;20739;-60
2024/02/14 02:22:32;;;;;;;9.32;7.20;;;19.70;47.50;;;;;;10358512;28;20053;-57
2024/02/14 02:27:37;;;;;;;9.02;6.60;;;19.60;47.60;;;;;;10359162;28;20068;-60
2024/02/14 02:32:38;;;;;;;9.55;6.95;;;19.50;47.90;;;;;;10361721;28;20042;-58
2024/02/14 02:37:40;;;;;;;7.50;5.90;;;19.50;47.60;;;;;;10358766;28;21650;-60
2024/02/14 02:42:45;;;;;;;8.10;6.45;;;19.50;47.80;;;;;;10356571;28;20058;-59
2024/02/14 02:47:47;;;;;;;8.55;6.65;;;19.40;47.80;;;;;;10359163;28;20145;-59
2024/02/14 02:52:49;;;;;;;8.93;6.70;;;19.40;47.80;;;;;;10360457;28;20057;-60
2024/02/14 02:57:52;;;;;;;7.25;6.18;;;19.40;47.90;;;;;;10363699;28;20050;-57
2024/02/14 03:02:54;;;;;;;7.72;6.13;;;19.30;47.90;;;;;;10360895;28;20074;-57
2024/02/14 03:07:58;;;;;;;7.93;6.03;;;19.40;47.90;;;;;;10360110;28;20140;-59
2024/02/14 03:13:01;;;;;;;7.97;5.40;;;19.30;47.80;;;;;;10361332;28;20504;-57
2024/02/14 03:18:05;;;;;;;7.57;5.88;;;19.30;47.80;;;;;;10361903;28;20064;-59
2024/02/14 03:23:07;;;;;;;8.65;6.03;;;19.30;47.80;;;;;;10359260;28;20042;-58
2024/02/14 03:28:13;;;;;;;7.00;5.65;;;19.20;47.80;;;;;;10355918;28;20041;-59
2024/02/14 03:33:14;;;;;;;6.78;5.63;;;19.20;47.90;;;;;;10349969;28;20054;-59
2024/02/14 03:38:25;;;;;;;7.63;5.72;;;19.20;47.80;;;;;;10347813;28;20057;-60
2024/02/14 03:43:28;;;;;;;6.63;5.18;;;19.30;47.70;;;;;;10348559;28;20541;-59
2024/02/14 03:48:30;;;;;;;7.90;5.72;;;19.10;47.90;;;;;;10353875;28;20172;-58
2024/02/14 03:53:33;;;;;;;7.32;5.63;;;19.10;47.90;;;;;;10348838;28;20072;-59
2024/02/14 03:58:37;;;;;;;6.47;5.20;;;19.00;47.90;;;;;;10351825;28;20081;-60
2024/02/14 04:03:38;;;;;;;7.28;5.20;;;19.10;47.80;;;;;;10357393;28;20137;-58
2024/02/14 04:08:40;;;;;;;7.38;5.13;;;19.40;47.40;;;;;;10360312;28;20137;-59
2024/02/14 04:13:43;;;;;;;6.90;4.90;;;19.90;46.90;;;;;;10354893;28;21544;-56
2024/02/14 04:18:44;;;;;;;6.88;5.22;;;20.20;46.80;;;;;;10351770;28;20514;-58
2024/02/14 04:23:46;;;;;;;5.63;4.90;;;20.50;46.70;;;;;;10351740;28;20072;-59
2024/02/14 04:28:49;;;;;;;5.25;4.57;;;20.50;46.50;;;;;;10355920;28;20072;-59
2024/02/14 04:33:52;;;;;;;5.47;4.65;;;20.50;46.70;;;;;;10355874;28;20046;-54
2024/02/14 04:38:55;;;;;;;5.07;4.40;;;20.50;48.80;;;;;;10352046;28;20101;-59
2024/02/14 04:43:58;;;;;;;5.50;4.53;;;20.50;49.10;;;;;;10350515;28;20077;-58
2024/02/14 04:49:00;;;;;;;17.23;6.07;;;20.60;49.10;;;;;;10346035;28;20046;-57
2024/02/14 04:54:01;;;;;;;16.33;6.07;;;20.70;49.40;;;;;;10350445;28;20054;-59
2024/02/14 04:59:05;;;;;;;11.75;5.30;;;20.70;49.20;;;;;;10354476;28;20043;-60
2024/02/14 05:04:06;;;;;;;12.50;5.50;;;20.70;49.30;;;;;;10351719;28;20046;-59
2024/02/14 05:09:10;;;;;;;9.38;4.85;;;20.80;48.50;;;;;;10353193;28;20479;-58
2024/02/14 05:14:13;;;;;;;11.85;5.50;;;20.80;48.90;;;;;;10353280;28;20045;-59
2024/02/14 05:19:14;;;;;;;15.10;5.38;;;20.90;48.80;;;;;;10356136;28;20042;-60
2024/02/14 05:24:16;;;;;;;11.93;5.38;;;21.10;48.80;;;;;;10354452;28;20077;-58
2024/02/14 05:29:20;;;;;;;10.27;4.82;;;21.10;48.70;;;;;;10355619;28;20125;-59
2024/02/14 05:34:22;;;;;;;9.95;5.03;;;21.20;49.20;;;;;;10359206;28;20046;-59
2024/02/14 05:39:23;;;;;;;8.50;4.88;;;21.20;49.70;;;;;;10357668;28;20042;-57
2024/02/14 05:44:27;;;;;;;11.40;5.32;;;21.30;50.00;;;;;;10359034;28;20443;-58
2024/02/14 05:49:28;;;;;;;7.95;4.55;;;21.30;50.30;;;;;;10354161;28;20053;-58
2024/02/14 05:54:30;;;;;;;7.10;4.45;;;21.40;50.60;;;;;;10352931;28;20064;-58
2024/02/14 05:59:33;;;;;;;7.70;4.07;;;21.50;50.80;;;;;;10354049;28;20419;-57
2024/02/14 06:04:35;;;;;;;10.13;4.03;;;21.50;50.90;;;;;;10353136;28;20046;-59
2024/02/14 06:09:37;;;;;;;6.45;4.00;;;21.60;50.60;;;;;;10356369;28;20043;-58
2024/02/14 06:14:40;;;;;;;4.78;3.70;;;21.90;49.60;;;;;;10357193;28;20060;-60
2024/02/14 06:19:41;;;;;;;5.55;3.80;;;21.90;49.50;;;;;;10352882;28;20061;-59
2024/02/14 06:24:43;;;;;;;5.10;3.88;;;21.90;49.40;;;;;;10357595;28;20052;-54
2024/02/14 06:29:46;;;;;;;7.78;3.65;;;21.90;49.50;;;;;;10364814;28;20057;-58
2024/02/14 06:34:47;;;;;;;7.13;3.45;;;22.00;49.50;;;;;;10362685;28;20136;-58
2024/02/14 06:39:49;;;;;;;4.72;3.55;;;22.00;49.30;;;;;;10361251;28;20089;-59
2024/02/14 06:44:52;;;;;;;6.13;3.47;;;22.00;49.40;;;;;;10365939;28;20050;-57
2024/02/14 06:49:54;;;;;;;6.85;3.75;;;21.80;49.90;;;;;;10364424;28;20483;-57
2024/02/14 06:54:55;;;;;;;8.80;3.97;;;22.00;49.80;;;;;;10360991;28;20056;-57
2024/02/14 06:59:58;;;;;;;10.80;4.00;;;21.90;50.20;;;;;;10360565;28;20050;-56
2024/02/14 07:05:00;;;;;;;12.68;4.88;;;21.90;50.50;;;;;;10357583;28;20062;-59
2024/02/14 07:10:01;;;;;;;17.42;4.75;;;22.00;50.40;;;;;;10355979;28;20053;-56
2024/02/14 07:15:06;;;;;;;13.10;5.28;;;21.90;50.50;;;;;;10362216;28;20046;-60
2024/02/14 07:20:09;;;;;;;13.88;4.95;;;21.80;51.00;;;;;;10362691;28;20046;-59
2024/02/14 07:25:11;;;;;;;16.00;5.03;;;21.80;51.00;;;;;;10358046;28;20046;-58
2024/02/14 07:30:15;;;;;;;11.52;4.30;;;21.80;50.20;;;;;;10355418;28;20046;-59
2024/02/14 07:35:17;;;;;;;12.50;4.65;;;21.80;50.20;;;;;;10355976;28;20050;-59
2024/02/14 07:40:18;;;;;;;14.52;4.55;;;21.90;50.20;;;;;;10354519;28;20046;-60
2024/02/14 07:45:21;;;;;;;9.10;4.25;;;21.90;50.00;;;;;;10358602;28;20491;-59
2024/02/14 07:50:23;;;;;;;8.48;3.83;;;22.00;49.60;;;;;;10358150;28;20415;-57
2024/02/14 07:55:24;;;;;;;9.18;3.97;;;21.90;49.60;;;;;;10361992;28;20081;-56
2024/02/14 08:00:27;;;;;;;8.15;3.75;;;21.90;49.60;;;;;;10361555;28;20050;-58
2024/02/14 08:05:32;;;;;;;10.82;4.03;;;21.90;49.50;;;;;;10356274;28;20419;-58
2024/02/14 08:10:33;;;;;;;9.75;3.08;;;22.00;49.40;;;;;;10352612;28;20082;-59
2024/02/14 08:15:36;;;;;;;9.93;3.72;;;21.80;49.60;;;;;;10346312;28;20056;-56
2024/02/14 08:20:38;;;;;;;7.82;3.40;;;21.80;49.80;;;;;;10357732;28;20049;-59
2024/02/14 08:25:41;;;;;;;7.20;3.50;;;21.80;49.50;;;;;;10361059;28;20916;-59
2024/02/14 08:30:44;;;;;;;5.65;3.08;;;21.80;49.50;;;;;;10360432;28;20112;-58
2024/02/14 08:35:47;;;;;;;7.70;3.13;;;21.90;49.50;;;;;;10357223;28;20499;-58
2024/02/14 08:40:48;;;;;;;5.18;2.80;;;21.80;49.40;;;;;;10351331;28;20049;-58
2024/02/14 08:45:51;;;;;;;5.55;2.90;;;21.80;49.40;;;;;;10349930;28;20619;-57
2024/02/14 08:50:54;;;;;;;5.10;2.75;;;21.90;49.30;;;;;;10361751;28;20104;-57
2024/02/14 08:55:57;;;;;;;6.40;2.92;;;21.90;49.30;;;;;;10359331;28;20049;-59
2024/02/14 09:01:00;;;;;;;7.68;2.80;;;21.80;49.30;;;;;;10357742;28;20136;-55
2024/02/14 09:06:03;;;;;;;5.95;2.92;;;21.80;49.40;;;;;;10356601;28;20060;-59
2024/02/14 09:11:05;;;;;;;4.70;2.65;;;21.80;49.10;;;;;;10358927;28;20469;-58
2024/02/14 09:16:08;;;;;;;4.03;2.33;;;21.80;49.10;;;;;;10354064;28;20109;-57
2024/02/14 09:21:10;;;;;;;5.82;2.92;;;21.80;49.00;;;;;;10350937;28;20046;-57
2024/02/14 09:26:12;;;;;;;6.13;2.70;;;21.80;49.10;;;;;;10347780;28;20141;-58
2024/02/14 09:31:19;;;;;;;4.95;2.75;;;21.80;49.00;;;;;;10348812;28;20049;-56
2024/02/14 09:36:21;;;;;;;5.38;2.42;;;21.80;48.80;;;;;;10356967;28;20041;-57
2024/02/14 09:41:24;;;;;;;3.53;2.22;;;21.80;48.90;;;;;;10359539;28;20484;-60
2024/02/14 09:46:27;;;;;;;4.88;2.60;;;21.80;48.80;;;;;;10354976;28;20049;-57
2024/02/14 09:51:29;;;;;;;4.72;2.33;;;21.90;48.60;;;;;;10352455;28;20050;-56
2024/02/14 09:56:31;;;;;;;4.25;2.15;;;21.80;48.80;;;;;;10350815;28;20504;-58
2024/02/14 10:01:33;;;;;;;3.85;2.13;;;21.80;48.70;;;;;;10349843;28;20046;-57
2024/02/14 10:06:35;;;;;;;3.55;2.30;;;21.80;48.60;;;;;;10365778;28;20042;-58
2024/02/14 10:11:37;;;;;;;5.90;2.00;;;21.80;48.60;;;;;;10365490;28;20050;-59
2024/02/14 10:16:41;;;;;;;2.90;1.63;;;21.80;48.60;;;;;;10366785;28;20133;-58
2024/02/14 10:21:42;;;;;;;4.30;1.98;;;21.70;48.70;;;;;;10361671;28;20050;-59
2024/02/14 10:26:45;;;;;;;5.30;2.13;;;21.70;48.50;;;;;;10359996;28;20133;-57
2024/02/14 10:31:48;;;;;;;3.20;1.80;;;21.80;48.40;;;;;;10357999;28;20100;-58
2024/02/14 10:36:51;;;;;;;3.70;1.73;;;21.60;48.50;;;;;;10356792;28;20443;-57
2024/02/14 10:41:52;;;;;;;2.83;1.80;;;21.70;48.40;;;;;;10358492;28;20050;-60
2024/02/14 10:46:56;;;;;;;3.53;1.70;;;21.70;48.30;;;;;;10355148;28;20124;-58
2024/02/14 10:51:59;;;;;;;2.95;1.83;;;21.60;48.20;;;;;;10361428;28;20081;-58
2024/02/14 10:57:02;;;;;;;3.05;1.70;;;21.60;48.20;;;;;;10360317;28;20048;-56
2024/02/14 11:02:05;;;;;;;3.50;1.67;;;21.50;48.30;;;;;;10357524;28;20054;-59
2024/02/14 11:07:10;;;;;;;3.38;1.65;;;21.50;48.40;;;;;;10353096;28;20133;-56
2024/02/14 11:12:11;;;;;;;2.28;1.50;;;21.40;48.40;;;;;;10352920;28;20575;-59
2024/02/14 11:17:17;;;;;;;3.20;1.70;;;21.40;48.40;;;;;;10365196;28;20144;-58
2024/02/14 11:22:20;;;;;;;2.85;1.52;;;21.40;48.40;;;;;;10362511;28;20056;-58
2024/02/14 11:27:22;;;;;;;2.58;1.42;;;21.30;48.40;;;;;;10352771;28;20137;-58
2024/02/14 11:32:25;;;;;;;2.88;1.40;;;21.30;48.60;;;;;;10357029;28;20456;-58
2024/02/14 11:37:28;;;;;;;1.90;1.58;;;21.30;48.40;;;;;;10358094;28;20046;-56
2024/02/14 11:42:30;;;;;;;2.45;1.50;;;21.30;48.20;;;;;;10365968;28;20045;-56
2024/02/14 11:47:34;;;;;;;2.95;1.63;;;21.30;48.30;;;;;;10365199;28;20084;-57
2024/02/14 11:52:35;;;;;;;2.33;1.40;;;21.30;48.20;;;;;;10364602;28;20129;-56
2024/02/14 11:57:37;;;;;;;1.73;1.20;;;21.30;48.20;;;;;;10353654;28;20049;-58
2024/02/14 12:02:40;;;;;;;2.88;1.38;;;21.30;48.30;;;;;;10350315;28;20089;-59
2024/02/14 12:07:42;;;;;;;1.70;1.20;;;21.30;48.40;;;;;;10349026;28;20038;-58
2024/02/14 12:12:46;;;;;;;1.77;1.20;;;21.30;48.20;;;;;;10352675;28;20092;-57
2024/02/14 12:17:49;;;;;;;2.42;1.20;;;21.40;48.20;;;;;;10351054;28;20057;-58
2024/02/14 12:22:51;;;;;;;1.77;1.15;;;21.40;48.20;;;;;;10357092;28;20136;-58
2024/02/14 12:27:53;;;;;;;1.10;1.00;;;21.40;48.10;;;;;;10353661;28;20046;-58
2024/02/14 12:33:07;;;;;;;1.40;1.15;;;21.40;48.00;;;;;;10362103;28;20037;-55
2024/02/14 12:38:09;;;;;;;1.70;1.20;;;21.40;48.10;;;;;;10355345;28;20045;-58
2024/02/14 12:43:11;;;;;;;1.52;1.02;;;21.40;48.00;;;;;;10350907;28;20050;-59
2024/02/14 12:48:15;;;;;;;1.50;1.00;;;21.50;48.10;;;;;;10356782;28;20049;-56
2024/02/14 12:53:16;;;;;;;1.45;1.10;;;21.50;47.90;;;;;;10356962;28;20050;-56
2024/02/14 12:58:18;;;;;;;1.58;1.00;;;21.50;48.10;;;;;;10360024;28;20041;-59
2024/02/14 13:03:21;;;;;;;1.88;1.10;;;21.50;47.80;;;;;;10359171;28;20069;-56
2024/02/14 13:08:23;;;;;;;1.60;1.08;;;21.50;47.80;;;;;;10360496;28;20443;-54
2024/02/14 13:13:24;;;;;;;1.55;1.00;;;21.60;47.80;;;;;;10353906;28;20049;-57
2024/02/14 13:18:27;;;;;;;7.13;1.20;;;21.50;47.70;;;;;;10361147;28;20041;-57
2024/02/14 13:23:29;;;;;;;2.78;1.00;;;21.50;48.00;;;;;;10363674;28;20142;-60
2024/02/14 13:28:31;;;;;;;6.97;1.50;;;21.50;48.70;;;;;;10354106;28;20093;-58
2024/02/14 13:33:34;;;;;;;11.40;2.58;;;21.60;49.10;;;;;;10348328;28;20077;-60
2024/02/14 13:38:38;;;;;;;8.90;2.38;;;21.50;49.70;;;;;;10367491;28;20511;-56
2024/02/14 13:43:40;;;;;;;8.77;2.53;;;21.40;50.60;;;;;;10373263;28;20129;-59
2024/02/14 13:48:43;;;;;;;5.55;2.08;;;21.50;51.00;;;;;;10369122;28;20128;-54
2024/02/14 13:53:45;;;;;;;6.55;1.95;;;21.70;51.20;;;;;;10371232;28;20132;-56
2024/02/14 13:58:47;;;;;;;5.35;2.15;;;21.70;51.50;;;;;;10365255;28;20042;-58
2024/02/14 14:03:50;;;;;;;7.38;2.00;;;21.80;51.60;;;;;;10365997;28;20050;-58
2024/02/14 14:08:51;;;;;;;7.65;2.10;;;22.00;51.10;;;;;;10367114;28;20104;-59
2024/02/14 14:13:53;;;;;;;5.65;2.10;;;22.00;51.10;;;;;;10366850;28;20140;-59
2024/02/14 14:18:58;;;;;;;4.28;1.85;;;22.00;51.30;;;;;;10362006;28;20136;-58
2024/02/14 14:23:59;;;;;;;3.72;1.67;;;22.00;51.10;;;;;;10356332;28;20485;-58
2024/02/14 14:29:01;;;;;;;4.95;2.08;;;21.80;51.30;;;;;;10356230;28;20092;-58
2024/02/14 14:34:04;;;;;;;2.50;1.50;;;21.90;51.30;;;;;;10359062;28;20050;-60
2024/02/14 14:39:06;;;;;;;3.42;1.40;;;21.90;51.20;;;;;;10360133;28;20045;-59
2024/02/14 14:44:08;;;;;;;3.13;1.50;;;22.00;51.00;;;;;;10360454;28;20134;-59
2024/02/14 14:49:11;;;;;;;4.10;1.45;;;22.00;50.60;;;;;;10358346;28;20484;-58
2024/02/14 14:54:13;;;;;;;2.67;1.50;;;22.00;50.60;;;;;;10362666;28;20156;-59
2024/02/14 14:59:15;;;;;;;1.88;1.20;;;22.20;50.20;;;;;;10358075;28;20154;-58
2024/02/14 15:04:18;;;;;;;2.60;1.25;;;22.20;50.10;;;;;;10360034;28;20046;-59
2024/02/14 15:09:20;;;;;;;3.38;1.27;;;22.20;49.90;;;;;;10361022;28;20124;-59
2024/02/14 15:14:21;;;;;;;2.33;1.00;;;22.10;50.20;;;;;;10358689;28;20418;-60
2024/02/14 15:19:26;;;;;;;2.83;1.42;;;22.20;50.00;;;;;;10362166;28;20046;-58
2024/02/14 15:24:28;;;;;;;4.10;1.50;;;22.30;49.80;;;;;;10357855;28;20076;-59
2024/02/14 15:34:51;;;;;;;1.67;1.05;;;21.70;51.70;;;;;;10356246;28;20053;-60
2024/02/14 15:39:53;;;;;;;3.88;1.27;;;21.80;51.80;;;;;;10352937;28;20437;-57
2024/02/14 15:44:54;;;;;;;2.38;1.17;;;21.80;51.90;;;;;;10355486;28;20089;-58
2024/02/14 15:49:57;;;;;;;1.75;1.10;;;21.90;51.70;;;;;;10352062;28;20046;-58
2024/02/14 15:54:59;;;;;;;5.63;1.17;;;21.90;51.70;;;;;;10356186;28;20061;-59
2024/02/14 16:00:01;;;;;;;2.85;0.93;;;21.90;51.50;;;;;;10352226;28;20043;-61
2024/02/14 16:05:04;;;;;;;5.25;1.40;;;21.90;51.30;;;;;;10362680;28;20081;-58
2024/02/14 16:10:07;;;;;;;2.83;1.23;;;22.00;52.00;;;;;;10360198;28;20168;-55
2024/02/14 16:15:12;;;;;;;2.33;1.02;;;22.10;52.30;;;;;;10353272;28;20149;-58
2024/02/14 16:20:19;;;;;;;5.18;1.08;;;22.30;52.30;;;;;;10358260;28;20538;-58
2024/02/14 16:25:21;;;;;;;3.60;0.93;;;22.40;52.50;;;;;;10357611;28;20080;-60
2024/02/14 16:30:23;;;;;;;4.97;0.98;;;22.40;52.40;;;;;;10357119;28;20049;-61
2024/02/14 16:35:26;;;;;;;5.25;1.00;;;22.30;52.20;;;;;;10355406;28;20061;-58
2024/02/14 16:40:29;;;;;;;6.03;1.25;;;22.20;51.80;;;;;;10353312;28;20515;-59
2024/02/14 16:45:31;;;;;;;3.92;1.00;;;22.20;51.70;;;;;;10351886;28;20050;-61
2024/02/14 16:50:34;;;;;;;5.47;0.90;;;22.10;51.60;;;;;;10351659;28;20057;-60
2024/02/14 16:55:36;;;;;;;3.00;0.80;;;22.10;51.60;;;;;;10357745;28;20141;-62
2024/02/14 17:00:38;;;;;;;5.47;1.02;;;22.10;51.50;;;;;;10354165;28;20435;-61
2024/02/14 17:05:42;;;;;;;4.78;0.90;;;22.10;51.30;;;;;;10353229;28;20054;-59
2024/02/14 17:10:44;;;;;;;3.08;0.80;;;22.20;51.20;;;;;;10355388;28;20134;-60
2024/02/14 17:15:45;;;;;;;1.77;0.80;;;22.20;51.20;;;;;;10356701;28;20100;-61
2024/02/14 17:20:49;;;;;;;1.20;0.80;;;22.20;51.20;;;;;;10358486;28;20153;-60
2024/02/14 17:25:50;;;;;;;2.58;0.90;;;22.20;51.20;;;;;;10356232;28;20499;-56
2024/02/14 17:30:52;;;;;;;0.88;0.65;;;22.20;51.10;;;;;;10355251;28;20479;-58
2024/02/14 17:35:55;;;;;;;2.80;1.10;;;22.20;51.00;;;;;;10359771;28;20065;-57
2024/02/14 17:40:57;;;;;;;1.30;1.00;;;22.20;50.90;;;;;;10353086;28;20042;-57
2024/02/14 17:45:59;;;;;;;1.88;0.88;;;22.20;51.00;;;;;;10355563;28;20496;-60
2024/02/14 17:51:02;;;;;;;1.35;0.85;;;22.20;50.90;;;;;;10355060;28;20042;-59
2024/02/14 17:56:04;;;;;;;2.35;0.90;;;22.30;50.80;;;;;;10358599;28;20042;-58
2024/02/14 18:01:05;;;;;;;1.95;0.70;;;22.20;50.90;;;;;;10355741;28;20145;-59
2024/02/14 18:06:09;;;;;;;6.75;1.25;;;22.30;51.00;;;;;;10358428;28;20056;-59
2024/02/14 18:11:11;;;;;;;9.27;1.10;;;22.40;51.30;;;;;;10358003;28;20045;-56
2024/02/14 18:16:14;;;;;;;4.80;0.80;;;22.80;51.40;;;;;;10358986;28;20048;-57
2024/02/14 18:21:17;;;;;;;4.78;1.05;;;23.00;50.90;;;;;;10355298;28;20046;-59
2024/02/14 18:26:20;;;;;;;3.33;0.93;;;23.00;51.40;;;;;;10355363;28;20046;-57
2024/02/14 18:31:22;;;;;;;3.10;1.00;;;22.90;51.90;;;;;;10369662;28;20045;-60
2024/02/14 18:36:25;;;;;;;5.90;1.17;;;23.10;51.10;;;;;;10361297;28;20049;-61
2024/02/14 18:41:26;;;;;;;11.38;0.90;;;23.20;50.60;;;;;;10366235;28;20048;-62
2024/02/14 18:46:28;;;;;;;4.72;0.85;;;23.40;49.80;;;;;;10364169;28;20137;-59
2024/02/14 18:51:31;;;;;;;11.88;1.45;;;23.60;49.00;;;;;;10366116;28;20133;-60
2024/02/14 18:56:33;;;;;;;5.22;0.90;;;23.80;49.20;;;;;;10367398;28;20050;-62
2024/02/14 19:01:35;;;;;;;3.53;0.90;;;23.60;49.40;;;;;;10372027;28;20718;-60
2024/02/14 19:06:38;;;;;;;16.92;1.20;;;23.90;49.10;;;;;;10368120;28;20500;-62
2024/02/14 19:11:39;;;;;;;9.35;1.20;;;23.90;49.50;;;;;;10370857;28;20526;-60
2024/02/14 19:16:41;;;;;;;10.32;1.00;;;23.80;49.90;;;;;;10361758;28;20564;-59
2024/02/14 19:21:44;;;;;;;7.80;1.00;;;23.50;50.50;;;;;;10361847;28;20119;-61
2024/02/14 19:26:46;;;;;;;3.75;1.20;;;23.80;50.00;;;;;;10362279;28;20049;-61
2024/02/14 19:31:48;;;;;;;2.90;0.93;;;23.80;50.00;;;;;;10360057;28;20056;-59
2024/02/14 19:36:51;;;;;;;6.55;1.13;;;23.80;50.20;;;;;;10357381;28;20046;-58
2024/02/14 19:41:52;;;;;;;11.68;1.08;;;23.90;50.60;;;;;;10363409;28;20050;-59
2024/02/14 19:46:54;;;;;;;6.18;1.15;;;24.00;50.70;;;;;;10360633;28;20105;-61
2024/02/14 19:51:57;;;;;;;6.78;1.08;;;24.00;50.20;;;;;;10361622;28;20054;-62
2024/02/14 19:56:59;;;;;;;13.00;1.10;;;24.20;48.10;;;;;;10359673;28;20500;-59
2024/02/14 20:02:00;;;;;;;5.75;1.33;;;24.10;48.70;;;;;;10358733;28;20050;-60
2024/02/14 20:07:07;;;;;;;1.77;1.02;;;24.50;47.60;;;;;;10356835;28;20534;-59
2024/02/14 20:12:09;;;;;;;4.18;1.17;;;24.80;46.80;;;;;;10355629;28;20093;-58
2024/02/14 20:17:13;;;;;;;2.60;0.80;;;25.00;46.40;;;;;;10357073;28;20073;-61
2024/02/14 20:22:16;;;;;;;4.68;0.85;;;25.10;45.90;;;;;;10360744;28;20038;-59
2024/02/14 20:27:17;;;;;;;7.40;0.90;;;25.10;45.80;;;;;;10353681;28;20177;-58
2024/02/14 20:32:19;;;;;;;1.20;0.80;;;25.00;45.80;;;;;;10359787;28;20149;-59
2024/02/14 20:37:22;;;;;;;1.00;0.73;;;24.90;46.50;;;;;;10358793;28;20050;-60
2024/02/14 20:42:24;;;;;;;1.63;0.80;;;24.80;45.90;;;;;;10354430;28;20049;-60
2024/02/14 20:47:26;;;;;;;2.40;0.82;;;24.50;46.10;;;;;;10354622;28;20108;-61
2024/02/14 20:52:29;;;;;;;5.50;0.88;;;24.60;46.20;;;;;;10361249;28;20054;-58
2024/02/14 20:57:31;;;;;;;2.78;1.02;;;24.40;46.80;;;;;;10361909;28;20046;-56
2024/02/14 21:02:32;;;;;;;5.10;1.30;;;24.20;47.30;;;;;;10363806;28;20496;-57
2024/02/14 21:07:35;;;;;;;3.13;0.90;;;24.10;47.70;;;;;;10366911;28;20137;-60
2024/02/14 21:12:37;;;;;;;3.80;1.20;;;24.00;47.80;;;;;;10361908;28;20046;-61
2024/02/14 21:17:39;;;;;;;4.65;1.30;;;23.80;47.90;;;;;;10364604;28;20559;-58
2024/02/14 21:22:42;;;;;;;1.20;0.90;;;23.70;48.20;;;;;;10359983;28;20120;-58
2024/02/14 21:27:45;;;;;;;2.75;1.20;;;23.70;48.20;;;;;;10353775;28;20045;-58
2024/02/14 21:32:46;;;;;;;3.28;1.08;;;23.50;48.30;;;;;;10365421;28;20080;-58
2024/02/14 21:37:49;;;;;;;1.92;1.00;;;23.40;48.50;;;;;;10363231;28;20136;-59
2024/02/14 21:42:51;;;;;;;1.67;1.00;;;23.30;48.60;;;;;;10356581;28;20056;-60
2024/02/14 21:47:53;;;;;;;1.30;0.80;;;23.20;48.90;;;;;;10363857;28;20052;-60
2024/02/14 21:52:56;;;;;;;3.22;1.10;;;23.20;48.80;;;;;;10365982;28;20422;-60
2024/02/14 21:57:58;;;;;;;1.40;0.90;;;23.10;48.90;;;;;;10370337;28;20050;-59
2024/02/14 22:02:59;;;;;;;2.28;1.02;;;23.00;48.90;;;;;;10368150;28;20492;-59
2024/02/14 22:08:03;;;;;;;2.38;1.00;;;23.00;48.90;;;;;;10369751;28;20580;-59
2024/02/14 22:13:05;;;;;;;1.48;0.80;;;22.90;48.90;;;;;;10369984;28;20126;-59
2024/02/14 22:18:07;;;;;;;1.27;0.90;;;22.90;48.70;;;;;;10356928;28;20129;-59
2024/02/14 22:23:10;;;;;;;1.10;0.90;;;22.90;48.90;;;;;;10361859;28;20049;-59
2024/02/14 22:28:12;;;;;;;0.90;0.90;;;22.80;49.00;;;;;;10372858;28;20241;-60
2024/02/14 22:33:14;;;;;;;1.75;0.85;;;22.80;49.00;;;;;;10371034;28;20111;-59
2024/02/14 22:38:18;;;;;;;1.35;1.00;;;22.80;49.00;;;;;;10368938;28;20053;-59
2024/02/14 22:43:20;;;;;;;1.13;0.95;;;22.70;49.00;;;;;;10365419;28;20050;-59
2024/02/14 22:48:22;;;;;;;3.08;1.10;;;22.60;49.00;;;;;;10372108;28;20042;-57
2024/02/14 22:53:25;;;;;;;1.00;0.82;;;22.50;49.20;;;;;;10363091;28;20042;-59
2024/02/14 22:58:26;;;;;;;1.48;0.98;;;22.60;48.90;;;;;;10356261;28;20049;-60
2024/02/14 23:03:28;;;;;;;1.50;0.90;;;22.50;49.10;;;;;;10365954;28;20165;-59
2024/02/14 23:08:31;;;;;;;1.73;0.90;;;22.40;49.10;;;;;;10364328;28;20046;-58
2024/02/14 23:13:32;;;;;;;1.30;0.80;;;22.40;49.00;;;;;;10360034;28;20042;-60
2024/02/14 23:18:34;;;;;;;0.80;0.80;;;22.30;49.40;;;;;;10366754;28;20081;-59
2024/02/14 23:23:37;;;;;;;1.15;0.80;;;22.30;49.20;;;;;;10363673;28;20049;-60
2024/02/14 23:28:39;;;;;;;0.95;0.70;;;22.30;49.30;;;;;;10365641;28;20093;-60
2024/02/14 23:33:41;;;;;;;1.00;0.70;;;22.10;49.50;;;;;;10362383;28;20042;-59
2024/02/14 23:38:44;;;;;;;1.30;0.90;;;22.00;49.50;;;;;;10357709;28;20055;-59
2024/02/14 23:43:45;;;;;;;0.80;0.70;;;22.20;49.10;;;;;;10365679;28;20052;-60
2024/02/14 23:48:47;;;;;;;0.80;0.70;;;22.10;49.90;;;;;;10364869;28;20136;-59
2024/02/14 23:53:50;;;;;;;1.05;0.70;;;22.00;49.50;;;;;;10367100;28;20054;-58
2024/02/14 23:58:52;;;;;;;0.90;0.82;;;22.00;49.50;;;;;;10366626;28;20042;-60
